Time;durP1;ratioP1;P1;durP2;ratioP2;P2;SDS_P1;SDS_P2;PMS_P1;PMS_P2;Temp;Humidity;BMP_temperature;BMP_pressure;BME280_temperature;BME280_humidity;BME280_pressure;Samples;Min_cycle;Max_cycle;Signal;HPM_P1;HPM_P2
2023/06/29 00:01:10;;;;;;;6.50;2.63;;;;;;;10.85;93.62;97946.44;6221413;28;20314;-47
2023/06/29 00:04:18;;;;;;;5.83;2.70;;;;;;;10.84;93.69;97944.00;6221699;28;20719;-47
2023/06/29 00:07:20;;;;;;;4.00;2.43;;;;;;;10.78;93.32;97939.59;6222671;28;20582;-49
2023/06/29 00:10:25;;;;;;;3.83;2.43;;;;;;;10.76;93.33;97947.03;6218665;28;20314;-49
2023/06/29 00:13:27;;;;;;;3.03;2.50;;;;;;;10.63;93.67;97928.66;6222673;28;20236;-47
2023/06/29 00:16:30;;;;;;;3.43;2.77;;;;;;;10.74;93.44;97938.47;6219051;28;20232;-47
2023/06/29 00:19:33;;;;;;;3.33;2.50;;;;;;;10.73;93.76;97945.63;6220999;28;20298;-47
2023/06/29 00:22:35;;;;;;;3.80;2.80;;;;;;;10.68;92.95;97947.41;6223229;28;20227;-47
2023/06/29 00:25:46;;;;;;;4.23;2.67;;;;;;;10.63;93.83;97944.63;6226870;28;20704;-48
2023/06/29 00:28:49;;;;;;;3.17;2.87;;;;;;;10.59;93.71;97945.13;6222945;28;20236;-47
2023/06/29 00:31:51;;;;;;;6.70;3.00;;;;;;;10.54;93.79;97942.34;6217383;28;20265;-50
2023/06/29 00:34:53;;;;;;;6.63;3.63;;;;;;;10.51;93.64;97936.69;6222974;28;20405;-49
2023/06/29 00:37:55;;;;;;;6.33;3.13;;;;;;;10.49;93.81;97941.41;6223157;28;20586;-47
2023/06/29 00:40:57;;;;;;;6.37;3.23;;;;;;;10.37;93.63;97932.66;6219201;28;20353;-49
2023/06/29 00:44:00;;;;;;;6.10;3.60;;;;;;;10.43;94.14;97959.13;6222264;28;20724;-50
2023/06/29 00:47:04;;;;;;;5.77;3.67;;;;;;;10.22;93.91;97925.91;6216814;28;20731;-49
2023/06/29 00:50:07;;;;;;;4.03;3.27;;;;;;;10.33;94.09;97950.94;6225097;28;20242;-50
2023/06/29 00:53:09;;;;;;;3.37;2.80;;;;;;;10.33;93.85;97945.59;6218635;28;20239;-47
2023/06/29 00:56:11;;;;;;;4.90;3.10;;;;;;;10.31;94.06;97947.72;6221251;28;20274;-51
2023/06/29 00:59:15;;;;;;;4.43;3.00;;;;;;;10.26;94.54;97947.59;6223379;28;20227;-49
2023/06/29 01:02:18;;;;;;;4.00;3.07;;;;;;;10.27;94.26;97949.22;6220235;28;20252;-50
2023/06/29 01:05:20;;;;;;;5.67;3.37;;;;;;;10.06;94.35;97916.78;6218668;28;20232;-47
2023/06/29 01:08:33;;;;;;;5.87;3.20;;;;;;;10.23;93.96;97950.69;6220744;28;20243;-48
2023/06/29 01:11:37;;;;;;;4.33;3.00;;;;;;;10.19;94.68;97942.34;6220059;28;20574;-48
2023/06/29 01:14:42;;;;;;;4.53;3.33;;;;;;;10.21;94.45;97950.13;6217973;28;20250;-49
2023/06/29 01:17:47;;;;;;;5.80;2.90;;;;;;;10.21;94.71;97942.13;6219623;28;20322;-48
2023/06/29 01:20:51;;;;;;;3.40;3.10;;;;;;;10.18;94.18;97948.72;6219526;28;20232;-49
2023/06/29 01:23:57;;;;;;;4.83;2.73;;;;;;;10.03;94.33;97935.06;6220258;28;20239;-49
2023/06/29 01:26:59;;;;;;;3.40;3.10;;;;;;;10.09;94.98;97944.78;6219241;28;20605;-47
2023/06/29 01:30:01;;;;;;;3.27;2.97;;;;;;;10.06;94.77;97946.06;6217623;28;20323;-53
2023/06/29 01:33:03;;;;;;;5.03;3.13;;;;;;;10.04;95.10;97944.66;6219948;28;20239;-48
2023/06/29 01:36:12;;;;;;;4.90;3.30;;;;;;;10.01;94.69;97943.28;6221654;28;20298;-50
2023/06/29 01:39:22;;;;;;;3.63;3.00;;;;;;;10.00;95.22;97946.16;6223487;28;20225;-49
2023/06/29 01:42:25;;;;;;;6.33;2.97;;;;;;;9.86;95.34;97920.84;6221129;28;20311;-50
2023/06/29 01:45:28;;;;;;;4.30;3.07;;;;;;;9.92;95.11;97941.22;6220510;28;20333;-48
2023/06/29 01:48:32;;;;;;;4.77;3.07;;;;;;;9.87;95.53;97941.91;6222800;28;20322;-49
2023/06/29 01:51:34;;;;;;;4.87;3.00;;;;;;;9.81;95.53;97932.97;6221081;28;20258;-49
2023/06/29 01:54:37;;;;;;;3.80;3.37;;;;;;;9.88;95.44;97935.53;6221072;28;20231;-49
2023/06/29 01:57:39;;;;;;;3.30;3.00;;;;;;;9.77;95.90;97933.69;6217932;28;20228;-47
2023/06/29 02:00:41;;;;;;;3.23;2.93;;;;;;;9.71;95.94;97915.97;6218160;28;20744;-52
2023/06/29 02:03:43;;;;;;;3.73;3.40;;;;;;;9.53;96.37;97901.72;6219180;28;20264;-49
2023/06/29 02:06:46;;;;;;;4.27;2.73;;;;;;;9.72;96.50;97944.19;6201522;28;20337;-48
2023/06/29 02:09:48;;;;;;;3.90;2.80;;;;;;;9.70;96.33;97939.09;6222469;28;20290;-48
2023/06/29 02:12:50;;;;;;;3.43;2.80;;;;;;;9.69;97.08;97939.31;6221681;28;20254;-48
2023/06/29 02:15:52;;;;;;;4.23;3.60;;;;;;;9.71;96.79;97937.25;6216193;28;20295;-48
2023/06/29 02:18:55;;;;;;;5.20;3.17;;;;;;;9.63;96.81;97932.25;6216806;28;20715;-46
2023/06/29 02:21:57;;;;;;;3.97;2.87;;;;;;;9.69;97.09;97936.66;6218309;28;20226;-49
2023/06/29 02:24:59;;;;;;;8.07;3.77;;;;;;;9.47;96.78;97913.28;6221652;28;20220;-48
2023/06/29 02:28:02;;;;;;;4.33;2.97;;;;;;;9.64;96.78;97942.66;6217991;28;20235;-48
2023/06/29 02:31:04;;;;;;;3.40;3.07;;;;;;;9.62;96.95;97936.78;6220589;28;20238;-48
2023/06/29 02:34:07;;;;;;;3.50;3.13;;;;;;;9.51;96.90;97913.66;6216704;28;20235;-49
2023/06/29 02:37:09;;;;;;;5.90;3.10;;;;;;;9.59;97.17;97939.88;6216369;28;20230;-46
2023/06/29 02:40:11;;;;;;;5.57;3.30;;;;;;;9.56;97.88;97935.84;6219292;28;20370;-47
2023/06/29 02:43:15;;;;;;;4.03;3.13;;;;;;;9.55;97.16;97934.19;6221057;28;20297;-46
2023/06/29 02:46:17;;;;;;;6.77;3.33;;;;;;;9.55;97.24;97936.88;6217441;28;20250;-51
2023/06/29 02:49:20;;;;;;;3.00;2.80;;;;;;;9.35;97.20;97907.13;6216808;28;20234;-46
2023/06/29 02:52:23;;;;;;;3.40;3.10;;;;;;;9.54;97.74;97937.09;6218554;28;20706;-48
2023/06/29 02:55:26;;;;;;;4.03;3.27;;;;;;;9.41;97.17;97916.03;6221347;28;20666;-46
2023/06/29 02:58:28;;;;;;;3.73;2.90;;;;;;;9.35;97.30;97920.41;6210460;28;20246;-46
2023/06/29 03:01:31;;;;;;;7.90;3.60;;;;;;;8.94;97.33;97846.81;6213876;28;20255;-49
2023/06/29 03:04:34;;;;;;;3.10;2.80;;;;;;;9.53;97.24;97946.13;6216339;28;20255;-49
2023/06/29 03:07:36;;;;;;;4.70;3.20;;;;;;;9.52;97.80;97952.50;6218566;28;20665;-49
2023/06/29 03:10:38;;;;;;;6.43;3.40;;;;;;;9.53;97.44;97944.28;6218350;28;20229;-47
2023/06/29 03:13:40;;;;;;;5.33;3.30;;;;;;;9.55;97.57;97950.16;6215536;28;20232;-48
2023/06/29 03:16:42;;;;;;;4.10;3.03;;;;;;;9.49;97.37;97943.09;6216916;28;20238;-49
2023/06/29 03:19:45;;;;;;;3.60;3.00;;;;;;;9.57;97.08;97957.94;6219037;28;20251;-49
2023/06/29 03:22:47;;;;;;;4.97;3.03;;;;;;;9.59;97.01;97950.53;6218702;28;20234;-47
2023/06/29 03:25:49;;;;;;;3.37;2.87;;;;;;;9.50;96.91;97944.72;6217251;28;20250;-47
2023/06/29 03:28:51;;;;;;;4.47;2.87;;;;;;;9.41;96.97;97931.97;6213541;28;20242;-49
2023/06/29 03:31:53;;;;;;;5.03;3.17;;;;;;;9.46;97.66;97943.56;6212407;28;20223;-47
2023/06/29 03:34:55;;;;;;;2.97;2.70;;;;;;;9.51;97.57;97950.88;6220426;28;20228;-46
2023/06/29 03:37:57;;;;;;;4.87;3.43;;;;;;;9.51;97.68;97956.19;6218010;28;20237;-46
2023/06/29 03:40:59;;;;;;;3.40;3.10;;;;;;;9.53;97.85;97952.25;6216829;28;20368;-46
2023/06/29 03:44:01;;;;;;;4.43;3.40;;;;;;;9.54;97.56;97953.06;6218655;28;20604;-48
2023/06/29 03:47:03;;;;;;;3.73;3.40;;;;;;;9.38;98.04;97922.63;6214507;28;20643;-49
2023/06/29 03:50:06;;;;;;;3.13;2.83;;;;;;;9.57;97.39;97955.28;6220663;28;20246;-47
2023/06/29 03:53:08;;;;;;;3.80;3.50;;;;;;;9.63;97.54;97956.22;6215626;28;20226;-47
2023/06/29 03:56:10;;;;;;;2.50;2.30;;;;;;;9.63;97.45;97953.53;6249383;28;20227;-46
2023/06/29 03:59:12;;;;;;;3.07;2.87;;;;;;;9.41;97.45;97918.69;6216050;28;20240;-47
2023/06/29 04:02:14;;;;;;;4.53;3.40;;;;;;;9.66;97.81;97958.41;6216724;28;20278;-47
2023/06/29 04:05:16;;;;;;;3.70;3.30;;;;;;;9.66;98.04;97963.75;6215620;28;20240;-50
2023/06/29 04:08:18;;;;;;;5.83;3.47;;;;;;;9.67;97.83;97960.03;6217898;28;20229;-49
2023/06/29 04:11:21;;;;;;;3.77;3.03;;;;;;;9.66;97.69;97956.56;6219692;28;20248;-48
2023/06/29 04:14:23;;;;;;;5.30;3.40;;;;;;;9.72;98.35;97960.97;6221245;28;20250;-49
2023/06/29 04:17:25;;;;;;;3.93;3.53;;;;;;;9.73;98.22;97964.44;6218409;28;20238;-48
2023/06/29 04:20:28;;;;;;;3.87;3.13;;;;;;;9.73;98.43;97962.59;6222219;28;20711;-49
2023/06/29 04:23:30;;;;;;;3.33;3.03;;;;;;;9.76;98.22;97970.13;6222731;28;20708;-49
2023/06/29 04:26:33;;;;;;;3.20;2.90;;;;;;;9.61;98.48;97937.00;6221717;28;20235;-49
2023/06/29 04:29:35;;;;;;;3.33;2.93;;;;;;;9.82;98.45;97965.72;6221944;28;20230;-47
2023/06/29 04:32:37;;;;;;;3.40;3.10;;;;;;;9.79;98.25;97963.50;6223339;28;20631;-47
2023/06/29 04:35:43;;;;;;;4.03;2.77;;;;;;;9.86;98.47;97971.41;6222845;28;20732;-49
2023/06/29 04:38:46;;;;;;;3.37;3.07;;;;;;;9.86;98.75;97961.56;6220925;28;20242;-47
2023/06/29 04:41:48;;;;;;;4.33;3.30;;;;;;;9.94;98.26;97968.38;6221618;28;20348;-47
2023/06/29 04:44:51;;;;;;;3.37;3.07;;;;;;;9.95;98.50;97967.34;6221770;28;20243;-47
2023/06/29 04:47:54;;;;;;;4.90;3.20;;;;;;;9.96;98.50;97969.78;6222237;28;20322;-47
2023/06/29 04:51:02;;;;;;;3.23;2.93;;;;;;;9.98;98.46;97957.06;6218376;28;20239;-50
2023/06/29 04:54:07;;;;;;;3.40;3.10;;;;;;;10.03;98.84;97959.03;6244264;28;20308;-48
2023/06/29 04:57:12;;;;;;;3.60;3.30;;;;;;;9.89;98.98;97931.00;6245744;28;20703;-46
2023/06/29 05:00:14;;;;;;;4.47;3.60;;;;;;;10.07;98.61;97955.66;6246008;28;20222;-48
2023/06/29 05:03:16;;;;;;;3.70;3.37;;;;;;;10.13;99.17;97961.91;6245794;28;20218;-48
2023/06/29 05:06:20;;;;;;;3.30;3.10;;;;;;;10.16;98.91;97960.66;6245479;28;20252;-48
2023/06/29 05:09:22;;;;;;;4.20;3.00;;;;;;;10.21;99.09;97955.44;6246482;28;20242;-47
2023/06/29 05:12:24;;;;;;;3.50;3.20;;;;;;;10.28;98.93;97961.47;6244235;28;20606;-48
2023/06/29 05:15:28;;;;;;;3.97;3.57;;;;;;;10.32;99.26;97954.66;6242177;28;20657;-47
2023/06/29 05:18:30;;;;;;;3.70;3.40;;;;;;;10.39;99.40;97947.31;6242685;28;20653;-48
2023/06/29 05:21:32;;;;;;;3.90;3.33;;;;;;;10.49;99.91;97962.72;6244495;28;20311;-47
2023/06/29 05:24:34;;;;;;;4.10;3.80;;;;;;;10.07;99.90;97896.31;6244457;28;20231;-48
2023/06/29 05:27:36;;;;;;;4.07;3.37;;;;;;;10.50;99.92;97933.22;6241650;28;20719;-50
2023/06/29 05:30:38;;;;;;;4.00;3.60;;;;;;;10.42;99.74;97906.13;6243528;28;20334;-50
2023/06/29 05:33:41;;;;;;;3.57;3.27;;;;;;;10.85;100.00;97953.63;6243618;28;20237;-51
2023/06/29 05:36:43;;;;;;;5.43;4.00;;;;;;;10.98;100.00;97955.19;6247168;28;20312;-52
2023/06/29 05:39:45;;;;;;;4.23;3.80;;;;;;;11.11;100.00;97952.25;6243487;28;20233;-50
2023/06/29 05:42:47;;;;;;;5.13;4.30;;;;;;;11.16;100.00;97938.19;6242347;28;20596;-56
2023/06/29 05:45:49;;;;;;;5.00;4.50;;;;;;;11.43;100.00;97943.72;6235561;28;20226;-53
2023/06/29 05:48:51;;;;;;;5.20;3.77;;;;;;;11.57;100.00;97953.06;6246659;28;20272;-49
2023/06/29 05:51:53;;;;;;;5.03;4.00;;;;;;;11.76;100.00;97945.63;6244245;28;20775;-49
2023/06/29 05:54:56;;;;;;;5.07;4.20;;;;;;;11.75;100.00;97922.66;6244529;28;20636;-50
2023/06/29 05:57:58;;;;;;;3.83;3.53;;;;;;;12.11;98.98;97916.81;6242973;28;20235;-49
2023/06/29 06:01:01;;;;;;;3.57;3.23;;;;;;;12.64;95.77;97942.09;6244781;28;20239;-49
2023/06/29 06:04:06;;;;;;;5.27;2.87;;;;;;;12.99;92.27;97940.09;6241644;28;20247;-48
2023/06/29 06:07:09;;;;;;;4.97;2.97;;;;;;;13.36;90.60;97934.91;6240396;28;20767;-52
2023/06/29 06:10:11;;;;;;;5.03;2.60;;;;;;;13.58;86.71;97924.13;6246847;28;20320;-48
2023/06/29 06:13:14;;;;;;;4.20;2.27;;;;;;;14.10;83.11;97934.16;6243604;28;20896;-50
2023/06/29 06:16:16;;;;;;;2.87;2.00;;;;;;;14.26;82.80;97927.84;6238963;28;20241;-51
2023/06/29 06:19:18;;;;;;;3.30;2.23;;;;;;;14.40;80.99;97928.19;6240966;28;20243;-50
2023/06/29 06:22:20;;;;;;;2.90;1.90;;;;;;;14.62;83.20;97938.75;6241621;28;20705;-51
2023/06/29 06:25:22;;;;;;;3.67;2.47;;;;;;;14.71;83.32;97942.56;6243587;28;20242;-50
2023/06/29 06:28:25;;;;;;;4.27;2.40;;;;;;;14.84;83.52;97946.66;6245600;28;20373;-53
2023/06/29 06:31:27;;;;;;;2.43;1.80;;;;;;;15.07;78.98;97946.16;6242723;28;20258;-52
2023/06/29 06:34:37;;;;;;;4.20;1.80;;;;;;;15.33;79.82;97946.25;6243428;28;20228;-51
2023/06/29 06:37:40;;;;;;;1.87;1.53;;;;;;;15.53;77.81;97948.16;6242944;28;20389;-54
2023/06/29 06:40:42;;;;;;;1.97;1.87;;;;;;;15.70;77.90;97946.84;6243552;28;20233;-53
2023/06/29 06:43:45;;;;;;;3.97;1.73;;;;;;;16.06;70.88;97938.78;6244372;28;20235;-52
2023/06/29 06:46:47;;;;;;;3.37;1.70;;;;;;;16.24;71.63;97948.16;6242095;28;20235;-51
2023/06/29 06:49:50;;;;;;;2.00;1.50;;;;;;;16.54;66.58;97955.34;6242577;28;20777;-52
2023/06/29 06:52:52;;;;;;;3.23;1.57;;;;;;;16.74;68.48;97941.84;6244452;28;20914;-52
2023/06/29 06:55:54;;;;;;;2.60;1.50;;;;;;;16.66;68.56;97909.31;6240964;28;20238;-51
2023/06/29 06:58:56;;;;;;;2.90;1.50;;;;;;;16.96;69.16;97946.09;6240150;28;20246;-52
2023/06/29 07:01:58;;;;;;;3.60;1.77;;;;;;;17.10;65.02;97947.09;6243895;28;20230;-53
2023/06/29 07:05:00;;;;;;;2.67;1.40;;;;;;;17.28;67.41;97951.00;6234985;28;20231;-52
2023/06/29 07:08:03;;;;;;;2.17;1.70;;;;;;;17.38;65.70;97942.88;6242593;28;20239;-51
2023/06/29 07:11:06;;;;;;;2.57;1.73;;;;;;;17.51;67.69;97944.16;6240506;28;20234;-50
2023/06/29 07:14:08;;;;;;;1.70;1.47;;;;;;;17.64;65.52;97940.03;6238915;28;20231;-53
2023/06/29 07:17:10;;;;;;;4.00;1.73;;;;;;;17.86;59.91;97943.09;6235167;28;20228;-51
2023/06/29 07:20:12;;;;;;;4.03;1.80;;;;;;;18.16;56.49;97923.16;6239492;28;20752;-52
2023/06/29 07:23:18;;;;;;;3.73;1.77;;;;;;;18.48;58.02;97937.94;6241226;28;20309;-52
2023/06/29 07:26:23;;;;;;;4.97;1.60;;;;;;;18.46;58.06;97905.84;6243031;28;20259;-51
2023/06/29 07:29:26;;;;;;;4.67;1.80;;;;;;;18.46;61.78;97942.78;6239677;28;20241;-53
2023/06/29 07:32:28;;;;;;;3.00;1.47;;;;;;;18.24;60.05;97916.34;6240687;28;20605;-53
2023/06/29 07:35:30;;;;;;;6.17;2.00;;;;;;;18.30;59.40;97923.28;6240496;28;20219;-52
2023/06/29 07:38:33;;;;;;;2.73;1.60;;;;;;;18.64;52.67;97943.97;6242581;28;20218;-53
2023/06/29 07:41:35;;;;;;;6.07;1.67;;;;;;;18.55;57.73;97919.50;6241476;28;20289;-52
2023/06/29 07:44:37;;;;;;;2.77;1.30;;;;;;;18.60;59.37;97938.31;6239682;28;20665;-52
2023/06/29 07:47:39;;;;;;;2.00;1.50;;;;;;;18.78;54.83;97939.50;6241320;28;20254;-51
2023/06/29 07:50:42;;;;;;;3.10;1.53;;;;;;;18.85;56.90;97948.03;6250989;28;20227;-53
2023/06/29 07:53:44;;;;;;;4.60;1.23;;;;;;;19.00;53.06;97947.06;6251781;28;20231;-52
2023/06/29 07:56:46;;;;;;;1.80;1.40;;;;;;;19.15;51.21;97941.44;6244485;28;20227;-53
2023/06/29 07:59:51;;;;;;;3.20;1.30;;;;;;;19.28;52.73;97938.03;6243759;28;20255;-52
2023/06/29 08:02:53;;;;;;;1.90;1.37;;;;;;;19.31;55.16;97936.66;6245719;28;20227;-52
2023/06/29 08:05:56;;;;;;;3.80;1.33;;;;;;;19.20;53.26;97911.66;6245758;28;20214;-52
2023/06/29 08:09:01;;;;;;;2.57;1.30;;;;;;;19.42;52.70;97931.91;6240580;28;20227;-52
2023/06/29 08:12:04;;;;;;;1.80;1.40;;;;;;;19.44;48.85;97913.50;6245899;28;20259;-53
2023/06/29 08:15:06;;;;;;;3.43;1.40;;;;;;;19.75;47.20;97909.25;6251905;28;20238;-53
2023/06/29 08:18:08;;;;;;;2.43;1.90;;;;;;;19.90;47.59;97931.69;6244998;28;20664;-52
2023/06/29 08:21:11;;;;;;;3.80;1.63;;;;;;;19.74;48.69;97928.44;6245332;28;20752;-54
2023/06/29 08:24:14;;;;;;;2.03;1.50;;;;;;;19.72;49.87;97938.78;6247301;28;20591;-53
2023/06/29 08:27:19;;;;;;;2.43;1.60;;;;;;;19.69;52.71;97937.44;6247480;28;20211;-54
2023/06/29 08:30:21;;;;;;;1.77;1.10;;;;;;;19.74;52.73;97934.66;6243346;28;20234;-52
2023/06/29 08:33:24;;;;;;;3.77;1.67;;;;;;;19.84;53.43;97925.59;6244913;28;20270;-55
2023/06/29 08:36:29;;;;;;;2.47;1.50;;;;;;;19.86;54.52;97925.31;6245875;28;20234;-53
2023/06/29 08:39:33;;;;;;;2.60;1.37;;;;;;;20.13;48.36;97924.56;6245807;28;20986;-54
2023/06/29 08:42:37;;;;;;;1.47;1.10;;;;;;;20.02;47.81;97922.03;6242253;28;20247;-53
2023/06/29 08:45:39;;;;;;;2.43;1.27;;;;;;;20.00;50.65;97924.25;6247466;28;20241;-55
2023/06/29 08:48:44;;;;;;;2.43;1.30;;;;;;;19.98;51.76;97928.34;6246946;28;20346;-54
2023/06/29 08:51:49;;;;;;;3.13;1.37;;;;;;;20.14;48.92;97929.66;6245501;28;20231;-53
2023/06/29 08:54:53;;;;;;;2.40;1.57;;;;;;;20.27;45.67;97931.59;6245279;28;20708;-55
2023/06/29 08:57:55;;;;;;;3.13;1.30;;;;;;;19.96;47.10;97892.69;6244124;28;20230;-54
2023/06/29 09:00:57;;;;;;;2.73;1.30;;;;;;;20.17;48.12;97912.06;6246449;28;20242;-55
2023/06/29 09:04:01;;;;;;;1.83;1.47;;;;;;;20.21;51.13;97921.19;6242294;28;20281;-54
2023/06/29 09:07:04;;;;;;;1.43;1.20;;;;;;;20.23;54.02;97922.47;6246067;28;20243;-54
2023/06/29 09:10:10;;;;;;;1.97;1.50;;;;;;;20.33;47.38;97916.06;6241790;28;20242;-53
2023/06/29 09:13:13;;;;;;;4.80;1.43;;;;;;;20.44;45.98;97916.66;6245873;28;20607;-53
2023/06/29 09:16:18;;;;;;;3.37;1.50;;;;;;;20.38;47.39;97901.66;6242150;28;20240;-53
2023/06/29 09:19:24;;;;;;;2.33;1.37;;;;;;;20.60;49.25;97918.03;6247220;28;20731;-54
2023/06/29 09:22:27;;;;;;;2.47;1.40;;;;;;;20.83;43.42;97922.41;6245527;28;20281;-54
2023/06/29 09:25:32;;;;;;;3.53;1.40;;;;;;;20.91;41.69;97912.78;6242938;28;20376;-55
2023/06/29 09:28:36;;;;;;;2.40;1.40;;;;;;;20.81;43.21;97905.69;6246531;28;20231;-55
2023/06/29 09:31:38;;;;;;;2.00;1.20;;;;;;;20.81;46.02;97910.28;6240855;28;20239;-53
2023/06/29 09:34:45;;;;;;;1.67;1.30;;;;;;;20.81;44.85;97892.13;6243921;28;20235;-55
2023/06/29 09:37:48;;;;;;;4.30;1.57;;;;;;;21.08;42.82;97902.13;6241305;28;20708;-54
2023/06/29 09:40:53;;;;;;;3.23;1.20;;;;;;;21.05;42.79;97910.06;6245450;28;20716;-55
2023/06/29 09:44:10;;;;;;;2.27;1.47;;;;;;;20.77;44.76;97874.09;6249009;28;20219;-54
2023/06/29 09:47:12;;;;;;;2.00;1.17;;;;;;;20.97;43.12;97897.22;6241962;28;20231;-54
2023/06/29 09:50:19;;;;;;;2.50;1.33;;;;;;;20.98;44.42;97888.78;6244829;28;20606;-54
2023/06/29 09:53:32;;;;;;;2.80;1.40;;;;;;;21.29;42.21;97897.06;6238651;28;20284;-54
2023/06/29 09:56:37;;;;;;;3.07;1.70;;;;;;;21.20;48.46;97885.34;6243422;28;20251;-55
2023/06/29 09:59:40;;;;;;;2.53;1.40;;;;;;;20.98;45.42;97863.59;6241218;28;20373;-53
2023/06/29 10:02:43;;;;;;;2.00;1.03;;;;;;;21.16;43.26;97881.63;6243750;28;20231;-55
2023/06/29 10:05:47;;;;;;;3.63;1.63;;;;;;;21.20;43.15;97888.03;6240974;28;20708;-54
2023/06/29 10:08:53;;;;;;;1.40;1.30;;;;;;;21.30;43.31;97885.13;6242621;28;20267;-55
2023/06/29 10:11:58;;;;;;;1.33;1.10;;;;;;;21.42;41.96;97884.56;6244481;28;20231;-55
2023/06/29 10:15:09;;;;;;;1.63;1.53;;;;;;;21.30;43.15;97855.31;6242577;28;20231;-53
2023/06/29 10:18:29;;;;;;;2.13;1.17;;;;;;;21.69;44.63;97878.25;6242353;28;20293;-54
2023/06/29 10:21:33;;;;;;;2.53;1.57;;;;;;;21.97;42.39;97880.78;6244727;28;20615;-55
2023/06/29 10:24:51;;;;;;;2.20;1.40;;;;;;;21.61;42.22;97877.06;6247049;28;20288;-55
2023/06/29 10:27:55;;;;;;;2.83;1.37;;;;;;;21.54;45.83;97876.69;6245438;28;20231;-55
2023/06/29 10:30:59;;;;;;;2.80;1.37;;;;;;;21.57;47.20;97867.13;6242055;28;20623;-53
2023/06/29 10:34:06;;;;;;;1.20;1.00;;;;;;;21.55;43.11;97858.53;6244092;28;20592;-55
2023/06/29 10:37:09;;;;;;;1.13;1.03;;;;;;;21.60;45.12;97869.25;6244371;28;20254;-54
2023/06/29 10:40:11;;;;;;;1.77;1.30;;;;;;;21.64;47.16;97860.19;6245480;28;20349;-54
2023/06/29 10:43:13;;;;;;;2.23;1.40;;;;;;;21.64;49.25;97853.97;6244719;28;20614;-55
2023/06/29 10:46:17;;;;;;;2.10;1.30;;;;;;;21.72;42.99;97850.47;6245481;28;20711;-54
2023/06/29 10:49:23;;;;;;;2.73;1.53;;;;;;;22.07;40.64;97850.69;6240644;28;20235;-55
2023/06/29 10:52:25;;;;;;;1.37;1.20;;;;;;;22.10;40.39;97845.44;6240437;28;20238;-55
2023/06/29 10:55:41;;;;;;;3.30;1.47;;;;;;;22.09;43.20;97843.81;6240907;28;20242;-56
2023/06/29 10:58:44;;;;;;;2.67;1.43;;;;;;;21.84;42.17;97795.69;6239777;28;20228;-55
2023/06/29 11:01:46;;;;;;;2.13;1.50;;;;;;;21.94;39.02;97819.03;6242869;28;20728;-55
2023/06/29 11:04:48;;;;;;;3.03;1.53;;;;;;;22.13;41.13;97834.00;6242897;28;20235;-55
2023/06/29 11:07:52;;;;;;;2.00;1.13;;;;;;;22.03;42.90;97811.72;6243148;28;20302;-54
2023/06/29 11:10:54;;;;;;;1.50;1.40;;;;;;;22.17;41.59;97827.91;6241134;28;20223;-55
2023/06/29 11:13:56;;;;;;;2.37;1.40;;;;;;;22.15;41.91;97796.47;6242307;28;20226;-55
2023/06/29 11:17:00;;;;;;;1.47;1.37;;;;;;;22.40;38.79;97807.72;6239622;28;20234;-55
2023/06/29 11:20:03;;;;;;;3.10;1.37;;;;;;;22.34;40.07;97820.66;6246564;28;20239;-54
2023/06/29 11:23:09;;;;;;;2.27;1.40;;;;;;;22.31;40.49;97810.41;6247101;28;20238;-55
2023/06/29 11:26:11;;;;;;;2.20;1.40;;;;;;;22.31;42.01;97810.41;6248474;28;20232;-55
2023/06/29 11:29:13;;;;;;;2.23;1.30;;;;;;;22.43;42.71;97809.03;6248193;28;20246;-55
2023/06/29 11:32:15;;;;;;;2.40;1.50;;;;;;;22.56;39.92;97810.78;6245737;28;20235;-55
2023/06/29 11:35:22;;;;;;;2.20;1.43;;;;;;;22.49;41.34;97805.81;6247127;28;20234;-55
2023/06/29 11:38:24;;;;;;;2.92;1.52;;;;;;;22.54;40.77;97804.88;6246692;28;20677;-55
2023/06/29 11:41:30;;;;;;;2.13;1.20;;;;;;;22.62;40.69;97801.41;6247405;28;20640;-54
2023/06/29 11:44:33;;;;;;;2.10;1.17;;;;;;;22.62;41.99;97794.03;6245050;28;20231;-60
2023/06/29 11:47:38;;;;;;;1.50;1.40;;;;;;;22.64;38.87;97799.16;6248591;28;20818;-55
2023/06/29 11:50:40;;;;;;;2.35;1.38;;;;;;;22.63;40.22;97792.13;6244860;28;20259;-58
2023/06/29 11:53:42;;;;;;;3.60;1.50;;;;;;;22.69;41.19;97793.56;6248593;28;20727;-56
2023/06/29 11:56:44;;;;;;;1.80;1.30;;;;;;;22.73;40.03;97780.16;6247262;28;20242;-57
2023/06/29 11:59:47;;;;;;;1.88;1.35;;;;;;;22.70;40.08;97759.84;6245598;28;20230;-56
2023/06/29 12:02:49;;;;;;;1.33;1.05;;;;;;;22.96;40.02;97776.19;6244398;28;20707;-58
2023/06/29 12:05:51;;;;;;;1.30;1.20;;;;;;;23.13;38.49;97778.91;6245437;28;20599;-61
2023/06/29 12:08:54;;;;;;;1.92;1.50;;;;;;;22.69;37.96;97743.88;6246757;28;20235;-59
2023/06/29 12:12:04;;;;;;;2.90;1.60;;;;;;;22.92;37.43;97777.97;6246673;28;20238;-56
2023/06/29 12:15:20;;;;;;;2.78;1.50;;;;;;;22.82;36.54;97762.75;6242805;28;20713;-59
2023/06/29 12:18:28;;;;;;;2.03;1.20;;;;;;;22.86;37.71;97754.75;6244127;28;20238;-62
2023/06/29 12:21:33;;;;;;;2.72;1.50;;;;;;;23.09;36.98;97756.19;6244028;28;20290;-57
2023/06/29 12:24:35;;;;;;;1.90;1.13;;;;;;;23.32;36.47;97753.28;6245623;28;20242;-56
2023/06/29 12:27:40;;;;;;;3.22;1.50;;;;;;;23.39;38.06;97751.66;6244789;28;20716;-57
2023/06/29 12:30:42;;;;;;;1.77;1.35;;;;;;;23.44;38.35;97745.25;6247012;28;20619;-55
2023/06/29 12:33:45;;;;;;;1.98;1.17;;;;;;;23.11;35.94;97674.38;6243204;28;20308;-56
2023/06/29 12:36:47;;;;;;;1.63;1.20;;;;;;;23.61;35.98;97738.97;6245058;28;20234;-56
2023/06/29 12:39:49;;;;;;;1.23;1.13;;;;;;;23.51;37.71;97712.94;6246482;28;20365;-56
2023/06/29 12:42:51;;;;;;;1.27;1.17;;;;;;;23.76;36.72;97734.97;6245416;28;20243;-56
2023/06/29 12:45:54;;;;;;;1.00;0.90;;;;;;;23.93;36.62;97734.88;6245029;28;20293;-56
2023/06/29 12:48:56;;;;;;;1.92;1.25;;;;;;;23.86;35.39;97702.75;6250213;28;20374;-56
2023/06/29 12:51:58;;;;;;;1.80;1.30;;;;;;;24.02;34.00;97726.66;6244051;28;20239;-56
2023/06/29 12:55:00;;;;;;;2.70;1.50;;;;;;;23.93;33.00;97723.97;6240600;28;20305;-56
2023/06/29 12:58:02;;;;;;;2.00;1.40;;;;;;;23.78;32.85;97716.38;6244691;28;20230;-55
2023/06/29 13:01:06;;;;;;;3.72;1.38;;;;;;;23.85;32.50;97720.19;6243696;28;20238;-56
2023/06/29 13:04:08;;;;;;;1.55;1.23;;;;;;;23.80;34.42;97714.94;6247544;28;20243;-56
2023/06/29 13:07:11;;;;;;;1.50;1.20;;;;;;;23.74;35.71;97713.50;6245276;28;20234;-55
2023/06/29 13:10:14;;;;;;;2.65;1.25;;;;;;;23.69;34.94;97716.41;6243755;28;20621;-55
2023/06/29 13:13:16;;;;;;;2.00;1.05;;;;;;;23.70;36.10;97709.88;6245718;28;20808;-56
2023/06/29 13:16:18;;;;;;;2.53;1.40;;;;;;;23.72;36.51;97706.81;6241124;28;20238;-55
2023/06/29 13:19:20;;;;;;;1.20;1.10;;;;;;;23.64;38.87;97703.00;6244890;28;20223;-55
2023/06/29 13:22:22;;;;;;;1.30;1.17;;;;;;;23.49;37.09;97692.63;6244860;28;20293;-55
2023/06/29 13:25:25;;;;;;;1.65;1.00;;;;;;;23.51;39.68;97685.75;6245162;28;20704;-56
2023/06/29 13:28:27;;;;;;;3.75;1.38;;;;;;;23.60;35.36;97700.13;6244531;28;20235;-55
2023/06/29 13:31:30;;;;;;;4.22;1.40;;;;;;;23.48;36.67;97697.25;6244030;28;20735;-56
2023/06/29 13:34:32;;;;;;;1.10;1.00;;;;;;;23.53;37.56;97699.00;6242879;28;20238;-56
2023/06/29 13:37:36;;;;;;;2.88;1.50;;;;;;;23.58;37.88;97696.91;6244718;28;20239;-56
2023/06/29 13:40:38;;;;;;;3.58;1.00;;;;;;;23.62;40.42;97697.84;6244592;28;20771;-56
2023/06/29 13:43:40;;;;;;;3.33;1.23;;;;;;;23.58;40.64;97698.81;6240376;28;20362;-56
2023/06/29 13:46:45;;;;;;;2.95;1.58;;;;;;;23.54;41.54;97703.31;6231269;28;20258;-57
2023/06/29 13:49:48;;;;;;;1.27;1.10;;;;;;;23.52;40.06;97691.97;6246536;28;20611;-56
2023/06/29 13:52:50;;;;;;;1.58;1.30;;;;;;;23.46;39.51;97680.50;6246237;28;20238;-56
2023/06/29 13:55:52;;;;;;;2.08;1.15;;;;;;;23.54;40.02;97692.44;6246529;28;20724;-56
2023/06/29 13:58:54;;;;;;;1.80;1.42;;;;;;;23.74;36.51;97691.75;6245016;28;20289;-56
2023/06/29 14:01:57;;;;;;;1.63;1.40;;;;;;;23.65;38.56;97653.72;6242996;28;20238;-55
2023/06/29 14:04:59;;;;;;;2.78;1.20;;;;;;;23.71;40.24;97678.81;6244351;28;20238;-55
2023/06/29 14:08:01;;;;;;;1.77;1.30;;;;;;;23.47;41.62;97676.63;6241813;28;20705;-56
2023/06/29 14:11:03;;;;;;;3.45;1.50;;;;;;;23.49;42.49;97677.09;6241579;28;20234;-55
2023/06/29 14:14:05;;;;;;;1.67;1.02;;;;;;;23.38;43.38;97648.69;6243498;28;20233;-56
2023/06/29 14:17:08;;;;;;;1.55;1.35;;;;;;;23.46;38.25;97641.63;6243258;28;20242;-56
2023/06/29 14:20:10;;;;;;;1.77;1.50;;;;;;;23.83;40.83;97673.44;6242980;28;20231;-55
2023/06/29 14:23:12;;;;;;;2.88;1.35;;;;;;;23.75;43.19;97651.75;6245297;28;20222;-55